Aviation Digital Data Service (ADDS)

Output produced by METARs form (0404 UTC 21 September 2014)
found at http://aviationweather.gov/adds/metars/
 
KRME 202350Z 2100/2124 12010KT P6SM SCT025 BKN045 
     TEMPO 2108/2112 OVC025 
     FM211400 19012G22KT P6SM OVC045 
     PROB30 2118/2122 3SM SHRA BR OVC025 
     FM212200 28008KT P6SM SCT025 BKN070